Terminal Aerodrome Forecast
Issued by NWS Pueblo, CO

Current Version | Previous Version | Text Only | Print | Product List | Glossary On
Versions: 1 2 3 4 5 6 7 8 9 10 11 12 13 14 15 16 17 18 19 20 21 22 23 24 25 26 27 28 29 30 31 32 33 34 35 36 37 38 39 40 41 42 43 44 45 46 47 48 49 50
000
FTUS45 KPUB 022323
TAFCOS
TAF
KCOS 022323Z 0300/0324 17006KT 5SM BR BKN010
     FM030600 24012KT P6SM SCT040 SCT150
     FM031200 30008KT P6SM SCT150
     FM031500 34011KT P6SM SCT150
     FM031700 01015G25KT P6SM SCT040 BKN120
     FM032100 12014KT P6SM VCSH BKN030
     FM032300 12014KT 2SM -SN BR OVC012=

USA.gov is the U.S. government's official web portal to all federal, state and local government web resources and services.